createdAt,value
2022-10-28T00:00:05.494Z,408.80
2022-10-28T00:01:05.518Z,412.50
2022-10-28T00:02:05.550Z,406.90
2022-10-28T00:03:05.555Z,408.80
2022-10-28T00:04:05.488Z,401.60
2022-10-28T00:05:05.463Z,406.20
2022-10-28T00:06:05.441Z,400.60
2022-10-28T00:07:05.437Z,394.00
2022-10-28T00:08:05.425Z,396.20
2022-10-28T00:09:08.196Z,402.90
2022-10-28T00:10:06.392Z,405.80
2022-10-28T00:11:05.386Z,423.80
2022-10-28T00:12:05.378Z,410.30
2022-10-28T00:13:05.478Z,427.50
2022-10-28T00:14:05.413Z,427.60
2022-10-28T00:15:05.363Z,436.60
2022-10-28T00:16:05.339Z,444.60
2022-10-28T00:17:05.346Z,449.20
2022-10-28T00:18:05.315Z,450.90
2022-10-28T00:19:05.351Z,452.60
2022-10-28T00:20:05.293Z,455.90
2022-10-28T00:21:05.321Z,466.50
2022-10-28T00:22:05.281Z,468.60
2022-10-28T00:23:05.263Z,476.40
2022-10-28T00:24:05.280Z,476.60
2022-10-28T00:25:05.242Z,476.40
2022-10-28T00:26:05.245Z,476.90
2022-10-28T00:27:05.217Z,466.50
2022-10-28T00:28:05.191Z,123.40
2022-10-28T00:29:05.222Z,478.70
2022-10-28T00:30:05.167Z,449.80
2022-10-28T00:31:05.183Z,440.70
2022-10-28T00:32:05.161Z,433.60
2022-10-28T00:33:05.155Z,424.70
2022-10-28T00:34:05.157Z,433.00
2022-10-28T00:35:05.118Z,428.70
2022-10-28T00:36:05.119Z,424.60
2022-10-28T00:37:05.100Z,428.60
2022-10-28T00:38:05.085Z,429.50
2022-10-28T00:39:05.118Z,429.50
2022-10-28T00:40:05.043Z,430.00
2022-10-28T00:41:05.035Z,431.70
2022-10-28T00:42:05.022Z,421.00
2022-10-28T00:43:05.023Z,434.40
2022-10-28T00:44:05.061Z,444.80
2022-10-28T00:45:05.023Z,452.30
2022-10-28T00:46:05.003Z,454.50
2022-10-28T00:47:05.000Z,443.40
2022-10-28T00:48:04.996Z,439.60
2022-10-28T00:49:05.003Z,435.90
2022-10-28T00:50:04.980Z,440.50
2022-10-28T00:51:04.936Z,435.20
2022-10-28T00:52:04.939Z,433.30
2022-10-28T00:53:04.921Z,436.90
2022-10-28T00:54:04.930Z,433.00
2022-10-28T00:55:04.895Z,430.50
2022-10-28T00:56:04.875Z,436.70
2022-10-28T00:57:04.885Z,436.90
2022-10-28T00:58:04.848Z,426.10
2022-10-28T00:59:04.893Z,426.60
2022-10-28T01:00:04.835Z,411.20
2022-10-28T01:01:04.847Z,423.90
2022-10-28T01:02:05.002Z,431.00
2022-10-28T01:03:04.807Z,422.30
2022-10-28T01:04:04.781Z,414.70
2022-10-28T01:05:04.807Z,134.00
2022-10-28T01:06:04.774Z,415.70
2022-10-28T01:07:04.761Z,439.70
2022-10-28T01:08:04.743Z,431.00
2022-10-28T01:09:04.732Z,499.90
2022-10-28T01:10:04.762Z,500.30
2022-10-28T01:11:04.730Z,505.00
2022-10-28T01:12:04.695Z,464.90
2022-10-28T01:13:04.677Z,394.40
2022-10-28T01:14:04.661Z,376.20
2022-10-28T01:15:04.691Z,389.80
2022-10-28T01:16:04.637Z,406.00
2022-10-28T01:17:04.631Z,395.10
2022-10-28T01:18:04.621Z,394.20
2022-10-28T01:19:04.612Z,397.90
2022-10-28T01:20:04.637Z,384.40
2022-10-28T01:21:04.589Z,376.50
2022-10-28T01:22:04.574Z,389.50
2022-10-28T01:23:04.571Z,376.60
2022-10-28T01:24:04.551Z,340.70
2022-10-28T01:25:04.572Z,332.30
2022-10-28T01:26:04.543Z,339.50
2022-10-28T01:27:04.530Z,351.90
2022-10-28T01:28:04.520Z,356.50
2022-10-28T01:29:04.506Z,344.60
2022-10-28T01:30:04.511Z,349.10
2022-10-28T01:31:04.463Z,354.30
2022-10-28T01:32:04.460Z,359.10
2022-10-28T01:33:04.451Z,353.20
2022-10-28T01:34:04.484Z,369.00
2022-10-28T01:35:04.479Z,353.40
2022-10-28T01:36:04.428Z,352.40
2022-10-28T01:37:04.405Z,355.40
2022-10-28T01:38:04.398Z,347.00
2022-10-28T01:39:04.397Z,357.00
2022-10-28T01:40:04.412Z,362.90
2022-10-28T01:41:04.379Z,69.80
2022-10-28T01:42:04.360Z,138.20
2022-10-28T01:43:04.352Z,357.60
2022-10-28T01:44:04.344Z,369.90
2022-10-28T01:45:04.363Z,381.50
2022-10-28T01:46:04.322Z,392.20
2022-10-28T01:47:04.304Z,376.40
2022-10-28T01:48:04.318Z,384.50
2022-10-28T01:49:04.272Z,412.40
2022-10-28T01:50:04.304Z,401.00
2022-10-28T01:51:04.232Z,374.80
2022-10-28T01:52:04.239Z,365.30
2022-10-28T01:53:04.211Z,369.30
2022-10-28T01:54:04.212Z,356.90
2022-10-28T01:55:04.231Z,347.80
2022-10-28T01:56:04.196Z,354.20
2022-10-28T01:57:04.183Z,368.80
2022-10-28T01:58:04.193Z,352.60
2022-10-28T01:59:04.157Z,358.50
2022-10-28T02:00:04.189Z,353.70
2022-10-28T02:01:04.189Z,353.10
2022-10-28T02:02:04.133Z,353.50
2022-10-28T02:03:04.112Z,351.50
2022-10-28T02:04:04.115Z,354.00
2022-10-28T02:05:04.129Z,362.50
2022-10-28T02:06:04.105Z,350.70
2022-10-28T02:07:04.070Z,357.10
2022-10-28T02:08:04.053Z,361.30
2022-10-28T02:09:04.057Z,385.40
2022-10-28T02:10:04.048Z,418.80
2022-10-28T02:11:04.046Z,75.50
2022-10-28T02:12:04.023Z,438.20
2022-10-28T02:13:04.015Z,206.90
2022-10-28T02:14:04.001Z,319.40
2022-10-28T02:15:04.039Z,442.70
2022-10-28T02:16:03.992Z,437.60
2022-10-28T02:17:03.953Z,423.60
2022-10-28T02:18:03.958Z,373.20
2022-10-28T02:19:03.930Z,354.20
2022-10-28T02:20:03.965Z,339.10
2022-10-28T02:21:03.955Z,76.30
2022-10-28T02:22:03.924Z,426.40
2022-10-28T02:23:03.890Z,345.60
2022-10-28T02:24:03.881Z,351.20
2022-10-28T02:25:03.877Z,355.20
2022-10-28T02:26:03.881Z,359.10
2022-10-28T02:27:03.832Z,358.80
2022-10-28T02:28:03.891Z,360.20
2022-10-28T02:29:03.823Z,358.80
2022-10-28T02:30:03.828Z,366.20
2022-10-28T02:31:03.836Z,364.70
2022-10-28T02:32:03.772Z,369.50
2022-10-28T02:33:03.770Z,80.90
2022-10-28T02:34:03.788Z,447.20
2022-10-28T02:35:03.760Z,369.30
2022-10-28T02:36:03.781Z,364.90
2022-10-28T02:37:03.723Z,365.40
2022-10-28T02:38:03.730Z,145.00
2022-10-28T02:39:03.719Z,434.50
2022-10-28T02:40:03.708Z,372.00
2022-10-28T02:41:03.721Z,379.60
2022-10-28T02:42:03.687Z,373.20
2022-10-28T02:43:03.676Z,372.10
2022-10-28T02:44:03.663Z,385.70
2022-10-28T02:45:03.697Z,121.80
2022-10-28T02:46:03.643Z,381.40
2022-10-28T02:47:03.610Z,105.60
2022-10-28T02:48:03.615Z,309.80
2022-10-28T02:49:03.591Z,394.60
2022-10-28T02:50:03.598Z,383.80
2022-10-28T02:51:03.631Z,396.70
2022-10-28T02:52:03.574Z,394.30
2022-10-28T02:53:03.546Z,395.90
2022-10-28T02:54:03.546Z,401.20
2022-10-28T02:55:03.537Z,260.20
2022-10-28T02:56:03.545Z,108.60
2022-10-28T02:57:03.518Z,106.70
2022-10-28T02:58:03.504Z,109.50
2022-10-28T02:59:03.532Z,371.80
2022-10-28T03:00:03.480Z,424.10
2022-10-28T03:01:03.591Z,425.40
2022-10-28T03:02:03.512Z,426.60
2022-10-28T03:03:03.448Z,418.20
2022-10-28T03:04:03.473Z,409.90
2022-10-28T03:05:03.429Z,416.00
2022-10-28T03:06:03.487Z,414.90
2022-10-28T03:07:03.388Z,413.10
2022-10-28T03:08:03.366Z,399.10
2022-10-28T03:09:03.423Z,405.60
2022-10-28T03:10:03.360Z,155.30
2022-10-28T03:11:03.372Z,500.80
2022-10-28T03:12:03.335Z,410.30
2022-10-28T03:13:03.322Z,114.30
2022-10-28T03:14:03.311Z,475.10
2022-10-28T03:15:03.286Z,418.10
2022-10-28T03:16:03.323Z,115.90
2022-10-28T03:17:03.277Z,502.70
2022-10-28T03:18:03.287Z,485.30
2022-10-28T03:19:03.278Z,90.10
2022-10-28T03:20:03.251Z,435.70
2022-10-28T03:21:03.286Z,418.50
2022-10-28T03:22:03.236Z,401.00
2022-10-28T03:23:03.206Z,390.30
2022-10-28T03:24:03.222Z,402.10
2022-10-28T03:25:03.182Z,417.30
2022-10-28T03:26:03.270Z,400.10
2022-10-28T03:27:03.170Z,399.80
2022-10-28T03:28:03.154Z,401.80
2022-10-28T03:29:03.135Z,403.70
2022-10-28T03:30:03.131Z,410.60
2022-10-28T03:31:03.173Z,65.30
2022-10-28T03:32:03.109Z,267.00
2022-10-28T03:33:03.085Z,417.60
2022-10-28T03:34:03.144Z,409.30
2022-10-28T03:35:03.048Z,412.50
2022-10-28T03:36:03.076Z,233.30
2022-10-28T03:37:03.036Z,330.50
2022-10-28T03:38:03.019Z,421.40
2022-10-28T03:39:03.021Z,413.50
2022-10-28T03:40:03.023Z,387.60
2022-10-28T03:41:03.041Z,422.60
2022-10-28T03:42:02.984Z,419.80
2022-10-28T03:43:02.981Z,407.90
2022-10-28T03:44:02.963Z,413.10
2022-10-28T03:45:02.955Z,422.00
2022-10-28T03:46:02.993Z,187.30
2022-10-28T03:47:02.939Z,440.70
2022-10-28T03:48:02.927Z,83.50
2022-10-28T03:49:02.925Z,445.80
2022-10-28T03:50:02.894Z,413.50
2022-10-28T03:51:02.962Z,93.70
2022-10-28T03:52:02.893Z,459.70
2022-10-28T03:53:02.871Z,239.80
2022-10-28T03:54:02.865Z,423.70
2022-10-28T03:55:02.862Z,417.30
2022-10-28T03:56:02.863Z,179.60
2022-10-28T03:57:02.835Z,442.60
2022-10-28T03:58:02.805Z,407.50
2022-10-28T03:59:02.823Z,415.10
2022-10-28T04:00:02.791Z,433.10
2022-10-28T04:01:02.857Z,448.50
2022-10-28T04:02:02.838Z,323.50
2022-10-28T04:03:02.730Z,326.30
2022-10-28T04:04:02.753Z,374.00
2022-10-28T04:05:02.741Z,322.60
2022-10-28T04:06:02.751Z,197.70
2022-10-28T04:07:02.705Z,427.40
2022-10-28T04:08:02.691Z,433.70
2022-10-28T04:09:02.685Z,438.00
2022-10-28T04:10:02.679Z,59.90
2022-10-28T04:11:02.681Z,340.80
2022-10-28T04:12:02.740Z,223.40
2022-10-28T04:13:02.646Z,415.20
2022-10-28T04:14:02.635Z,390.20
2022-10-28T04:15:02.626Z,369.10
2022-10-28T04:16:02.657Z,326.30
2022-10-28T04:17:02.610Z,224.50
2022-10-28T04:18:02.587Z,325.60
2022-10-28T04:19:02.566Z,65.10
2022-10-28T04:20:02.576Z,306.40
2022-10-28T04:21:02.596Z,290.80
2022-10-28T04:22:02.544Z,305.20
2022-10-28T04:23:02.872Z,315.50
2022-10-28T04:24:02.519Z,307.60
2022-10-28T04:25:02.535Z,319.10
2022-10-28T04:26:02.521Z,304.50
2022-10-28T04:27:02.492Z,320.30
2022-10-28T04:28:02.493Z,343.50
2022-10-28T04:29:02.469Z,354.80
2022-10-28T04:30:02.449Z,344.60
2022-10-28T04:31:02.477Z,70.00
2022-10-28T04:32:02.426Z,326.50
2022-10-28T04:33:02.439Z,331.00
2022-10-28T04:34:02.407Z,334.60
2022-10-28T04:35:02.411Z,354.60
2022-10-28T04:36:02.445Z,385.20
2022-10-28T04:37:02.425Z,392.00
2022-10-28T04:38:02.363Z,375.10
2022-10-28T04:39:02.342Z,375.50
2022-10-28T04:40:02.363Z,375.70
2022-10-28T04:41:02.361Z,146.00
2022-10-28T04:42:02.334Z,376.50
2022-10-28T04:43:02.307Z,414.10
2022-10-28T04:44:02.310Z,403.80
2022-10-28T04:45:02.288Z,201.40
2022-10-28T04:46:02.313Z,316.90
2022-10-28T04:47:02.268Z,326.50
2022-10-28T04:48:02.250Z,302.50
2022-10-28T04:49:02.229Z,336.80
2022-10-28T04:50:02.254Z,395.20
2022-10-28T04:51:02.250Z,69.50
2022-10-28T04:52:02.215Z,360.30
2022-10-28T04:53:02.181Z,372.70
2022-10-28T04:54:02.181Z,428.90
2022-10-28T04:55:02.165Z,432.90
2022-10-28T04:56:02.194Z,424.30
2022-10-28T04:57:02.141Z,136.80
2022-10-28T04:58:02.149Z,406.80
2022-10-28T04:59:02.113Z,421.30
2022-10-28T05:00:02.155Z,414.30
2022-10-28T05:01:02.165Z,355.30
2022-10-28T05:02:02.183Z,269.10
2022-10-28T05:03:02.081Z,429.40
2022-10-28T05:04:02.076Z,429.90
2022-10-28T05:05:02.064Z,106.30
2022-10-28T05:06:02.102Z,428.10
2022-10-28T05:07:02.224Z,422.10
2022-10-28T05:08:02.010Z,405.40
2022-10-28T05:09:02.002Z,418.60
2022-10-28T05:10:02.011Z,409.70
2022-10-28T05:11:02.026Z,393.20
2022-10-28T05:12:01.975Z,382.30
2022-10-28T05:13:01.964Z,121.90
2022-10-28T05:14:01.960Z,432.50
2022-10-28T05:15:01.936Z,165.90
2022-10-28T05:16:01.974Z,424.90
2022-10-28T05:17:02.034Z,412.00
2022-10-28T05:18:01.913Z,398.40
2022-10-28T05:19:01.900Z,118.70
2022-10-28T05:20:01.894Z,436.00
2022-10-28T05:21:01.910Z,410.40
2022-10-28T05:22:01.883Z,413.70
2022-10-28T05:23:01.841Z,447.20
2022-10-28T05:24:01.825Z,445.50
2022-10-28T05:25:01.813Z,442.40
2022-10-28T05:26:01.836Z,430.00
2022-10-28T05:27:01.935Z,410.90
2022-10-28T05:28:01.805Z,301.10
2022-10-28T05:29:01.782Z,454.30
2022-10-28T05:30:01.784Z,432.50
2022-10-28T05:31:01.789Z,407.80
2022-10-28T05:32:01.797Z,396.40
2022-10-28T05:33:02.221Z,278.70
2022-10-28T05:34:01.732Z,419.80
2022-10-28T05:35:01.728Z,434.80
2022-10-28T05:36:01.745Z,440.30
2022-10-28T05:37:01.764Z,413.70
2022-10-28T05:38:01.676Z,233.20
2022-10-28T05:39:01.673Z,414.80
2022-10-28T05:40:01.705Z,415.80
2022-10-28T05:41:01.702Z,413.30
2022-10-28T05:42:01.690Z,198.50
2022-10-28T05:43:01.636Z,283.00
2022-10-28T05:44:01.630Z,411.70
2022-10-28T05:45:01.638Z,411.30
2022-10-28T05:46:01.577Z,451.30
2022-10-28T05:47:01.681Z,123.70
2022-10-28T05:48:01.556Z,423.70
2022-10-28T05:49:01.571Z,446.50
2022-10-28T05:50:01.541Z,459.50
2022-10-28T05:51:01.545Z,117.10
2022-10-28T05:52:01.680Z,435.20
2022-10-28T05:53:01.525Z,463.80
2022-10-28T05:54:01.499Z,439.60
2022-10-28T05:55:01.492Z,168.90
2022-10-28T05:56:01.493Z,453.90
2022-10-28T05:57:01.503Z,91.30
2022-10-28T05:58:01.429Z,446.10
2022-10-28T05:59:01.428Z,362.90
2022-10-28T06:00:01.418Z,202.40
2022-10-28T06:01:01.432Z,276.20
2022-10-28T06:02:01.558Z,374.70
2022-10-28T06:03:01.407Z,357.60
2022-10-28T06:04:01.427Z,360.10
2022-10-28T06:05:01.375Z,368.40
2022-10-28T06:06:01.359Z,231.60
2022-10-28T06:07:01.397Z,420.00
2022-10-28T06:08:01.365Z,377.30
2022-10-28T06:09:01.324Z,81.70
2022-10-28T06:10:01.322Z,418.30
2022-10-28T06:10:59.786Z,89.10
2022-10-28T06:11:59.789Z,432.10
2022-10-28T06:12:59.753Z,121.40
2022-10-28T06:13:59.737Z,435.80
2022-10-28T06:14:59.737Z,84.60
2022-10-28T06:15:59.708Z,465.60
2022-10-28T06:16:59.754Z,374.50
2022-10-28T06:17:59.693Z,430.20
2022-10-28T06:18:59.697Z,297.50
2022-10-28T06:19:59.684Z,275.20
2022-10-28T06:20:59.680Z,510.90
2022-10-28T06:21:59.724Z,115.20
2022-10-28T06:22:59.656Z,496.50
2022-10-28T06:23:59.655Z,129.50
2022-10-28T06:24:59.625Z,474.30
2022-10-28T06:25:59.627Z,433.00
2022-10-28T06:26:59.648Z,445.20
2022-10-28T06:27:59.599Z,348.00
2022-10-28T06:28:59.595Z,456.00
2022-10-28T06:29:59.563Z,436.40
2022-10-28T06:30:59.594Z,518.80
2022-10-28T06:31:59.597Z,511.00
2022-10-28T06:32:59.525Z,306.50
2022-10-28T06:33:59.511Z,85.90
2022-10-28T06:34:59.512Z,465.80
2022-10-28T06:35:59.499Z,317.40
2022-10-28T06:36:59.537Z,415.90
2022-10-28T06:37:59.498Z,427.40
2022-10-28T06:38:59.469Z,420.50
2022-10-28T06:39:59.490Z,313.00
2022-10-28T06:40:59.457Z,312.80
2022-10-28T06:41:59.511Z,436.70
2022-10-28T06:42:59.439Z,155.50
2022-10-28T06:43:59.439Z,465.60
2022-10-28T06:44:59.419Z,76.70
2022-10-28T06:45:59.395Z,372.80
2022-10-28T06:47:00.949Z,358.30
2022-10-28T06:48:00.897Z,190.60
2022-10-28T06:49:00.898Z,310.50
2022-10-28T06:50:00.900Z,216.20
2022-10-28T06:51:00.893Z,341.00
2022-10-28T06:52:00.897Z,291.50
2022-10-28T06:53:00.834Z,61.70
2022-10-28T06:54:00.845Z,304.40
2022-10-28T06:55:00.819Z,275.60
2022-10-28T06:56:00.823Z,321.50
2022-10-28T06:57:00.860Z,288.50
2022-10-28T06:58:00.800Z,93.00
2022-10-28T06:59:00.786Z,286.30
2022-10-28T07:00:00.759Z,197.90
2022-10-28T07:01:00.762Z,285.00
2022-10-28T07:02:00.963Z,117.60
2022-10-28T07:03:01.020Z,272.20
2022-10-28T07:04:00.736Z,60.60
2022-10-28T07:05:00.724Z,252.40
2022-10-28T07:06:00.737Z,54.80
2022-10-28T07:07:00.738Z,279.10
2022-10-28T07:08:00.692Z,184.50
2022-10-28T07:09:00.672Z,260.70
2022-10-28T07:10:00.661Z,67.00
2022-10-28T07:11:00.637Z,250.50
2022-10-28T07:12:04.889Z,204.30
2022-10-28T07:13:01.615Z,201.00
2022-10-28T07:14:00.623Z,203.50
2022-10-28T07:15:00.616Z,100.00
2022-10-28T07:16:00.599Z,173.50
2022-10-28T07:17:00.627Z,197.60
2022-10-28T07:18:00.573Z,74.70
2022-10-28T07:19:00.584Z,134.50
2022-10-28T07:20:00.555Z,208.30
2022-10-28T07:21:00.551Z,167.80
2022-10-28T07:22:00.553Z,117.00
2022-10-28T07:23:00.518Z,193.70
2022-10-28T07:24:00.518Z,157.70
2022-10-28T07:25:00.509Z,207.30
2022-10-28T07:26:00.503Z,797.70
2022-10-28T07:27:00.543Z,372.60
2022-10-28T07:28:00.500Z,963.10
2022-10-28T07:29:00.471Z,601.40
2022-10-28T07:30:00.448Z,999.90
2022-10-28T07:31:00.501Z,999.90
2022-10-28T07:32:00.482Z,999.90
2022-10-28T07:33:00.421Z,302.90
2022-10-28T07:34:00.406Z,999.90
2022-10-28T07:35:00.417Z,437.50
2022-10-28T07:36:00.395Z,999.90
2022-10-28T07:37:00.490Z,330.80
2022-10-28T07:38:00.365Z,999.90
2022-10-28T07:39:00.360Z,999.90
2022-10-28T07:40:00.355Z,999.90
2022-10-28T07:41:00.342Z,887.10
2022-10-28T07:42:00.321Z,999.90
2022-10-28T07:43:00.351Z,999.90
2022-10-28T07:44:00.275Z,999.90
2022-10-28T07:45:00.281Z,999.90
2022-10-28T07:46:00.263Z,999.90
2022-10-28T07:47:00.266Z,999.90
2022-10-28T07:48:00.294Z,999.90
2022-10-28T07:49:00.268Z,999.90
2022-10-28T07:50:00.223Z,999.90
2022-10-28T07:51:00.233Z,999.90
2022-10-28T07:52:00.187Z,999.90
2022-10-28T07:53:00.234Z,999.90
2022-10-28T07:54:00.190Z,999.90
2022-10-28T07:55:00.173Z,999.90
2022-10-28T07:56:00.159Z,999.90
2022-10-28T07:57:00.198Z,999.90
2022-10-28T07:58:00.176Z,999.90
2022-10-28T07:59:00.121Z,999.90
2022-10-28T08:00:00.112Z,999.90
2022-10-28T08:01:00.167Z,999.90
2022-10-28T08:02:00.213Z,999.90
2022-10-28T08:03:00.102Z,999.90
2022-10-28T08:04:00.055Z,999.90
2022-10-28T08:05:00.067Z,999.90
2022-10-28T08:06:00.045Z,999.90
2022-10-28T08:07:00.018Z,999.90
2022-10-28T08:08:00.039Z,999.90
2022-10-28T08:08:59.991Z,999.90
2022-10-28T08:09:59.980Z,999.90
2022-10-28T08:10:59.981Z,999.90
2022-10-28T08:11:59.960Z,999.90
2022-10-28T08:13:00.014Z,999.90
2022-10-28T08:13:59.934Z,999.90
2022-10-28T08:14:59.925Z,999.90
2022-10-28T08:15:59.895Z,999.90
2022-10-28T08:16:59.892Z,453.30
2022-10-28T08:17:59.903Z,989.40
2022-10-28T08:19:02.865Z,189.60
2022-10-28T08:20:00.854Z,55.60
2022-10-28T08:21:59.808Z,26.50
2022-10-28T08:23:02.751Z,23.40
2022-10-28T08:24:00.786Z,281.60
2022-10-28T08:24:59.791Z,700.20
2022-10-28T08:25:59.781Z,25.50
2022-10-28T08:26:59.765Z,32.80
2022-10-28T08:27:59.797Z,37.90
2022-10-28T08:28:59.766Z,38.00
2022-10-28T08:29:59.735Z,23.70
2022-10-28T08:31:08.420Z,35.00
2022-10-28T08:32:00.687Z,24.00
2022-10-28T08:32:59.748Z,20.40
2022-10-28T08:33:59.680Z,35.30
2022-10-28T08:34:59.696Z,19.60
2022-10-28T08:35:59.665Z,176.00
2022-10-28T08:36:59.692Z,37.90
2022-10-28T08:37:59.697Z,18.10
2022-10-28T08:38:59.629Z,19.00
2022-10-28T08:39:59.625Z,16.40
2022-10-28T08:40:59.613Z,17.10
2022-10-28T08:41:59.606Z,19.30
2022-10-28T08:42:59.630Z,22.50
2022-10-28T08:43:59.579Z,23.40
2022-10-28T08:44:59.572Z,20.30
2022-10-28T08:45:59.536Z,18.70
2022-10-28T08:46:59.565Z,17.40
2022-10-28T08:48:59.545Z,20.00
2022-10-28T08:49:59.509Z,17.20
2022-10-28T08:50:59.508Z,14.10
2022-10-28T08:51:59.491Z,14.50
2022-10-28T08:52:59.522Z,12.80
2022-10-28T08:53:59.462Z,13.10
2022-10-28T08:54:59.452Z,12.70
2022-10-28T08:55:59.426Z,12.50
2022-10-28T08:56:59.450Z,13.50
2022-10-28T08:57:59.432Z,14.50
2022-10-28T08:58:59.410Z,14.60
2022-10-28T08:59:59.404Z,14.40
2022-10-28T09:00:59.413Z,15.30
2022-10-28T09:01:59.400Z,15.80
2022-10-28T09:02:59.417Z,15.80
2022-10-28T09:03:59.349Z,16.20
2022-10-28T09:04:59.354Z,14.70
2022-10-28T09:05:59.341Z,14.70
2022-10-28T09:06:59.348Z,15.70
2022-10-28T09:07:59.358Z,21.30
2022-10-28T09:08:59.291Z,15.20
2022-10-28T09:09:59.306Z,18.60
2022-10-28T09:10:59.281Z,15.00
2022-10-28T09:11:59.257Z,14.80
2022-10-28T09:12:59.251Z,15.90
2022-10-28T09:13:59.281Z,13.60
2022-10-28T09:14:59.249Z,17.10
2022-10-28T09:15:59.218Z,14.30
2022-10-28T09:16:59.216Z,12.60
2022-10-28T09:17:59.247Z,13.80
2022-10-28T09:18:59.238Z,13.00
2022-10-28T09:19:59.177Z,12.30
2022-10-28T09:20:59.181Z,11.90
2022-10-28T09:21:59.140Z,13.50
2022-10-28T09:22:59.175Z,13.70
2022-10-28T09:23:59.122Z,12.40
2022-10-28T09:24:59.116Z,13.10
2022-10-28T09:25:59.117Z,12.40
2022-10-28T09:26:59.087Z,15.10
2022-10-28T09:27:59.149Z,14.20
2022-10-28T09:28:59.132Z,12.30
2022-10-28T09:29:59.037Z,12.80
2022-10-28T09:30:59.031Z,13.40
2022-10-28T09:31:59.022Z,12.30
2022-10-28T09:32:59.022Z,12.10
2022-10-28T09:33:59.060Z,11.90
2022-10-28T09:34:59.012Z,12.30
2022-10-28T09:35:59.001Z,12.50
2022-10-28T09:36:58.985Z,12.60
2022-10-28T09:37:58.968Z,13.50
2022-10-28T09:38:58.996Z,12.50
2022-10-28T09:39:58.954Z,12.80
2022-10-28T09:40:58.965Z,13.50
2022-10-28T09:41:58.951Z,14.20
2022-10-28T09:42:58.932Z,15.40
2022-10-28T09:43:58.925Z,14.10
2022-10-28T09:44:58.881Z,13.70
2022-10-28T09:45:58.882Z,12.10
2022-10-28T09:46:58.871Z,11.50
2022-10-28T09:47:58.877Z,12.30
2022-10-28T09:48:58.917Z,11.90
2022-10-28T09:49:58.865Z,11.20
2022-10-28T09:50:58.834Z,11.60
2022-10-28T09:51:58.810Z,12.70
2022-10-28T09:52:58.821Z,11.70
2022-10-28T09:53:58.854Z,10.70
2022-10-28T09:54:58.853Z,11.10
2022-10-28T09:55:58.853Z,10.60
2022-10-28T09:56:58.767Z,10.90
2022-10-28T09:57:58.754Z,11.40
2022-10-28T09:58:58.778Z,10.80
2022-10-28T09:59:58.743Z,10.20
2022-10-28T10:00:58.702Z,10.10
2022-10-28T10:01:58.818Z,12.00
2022-10-28T10:02:58.770Z,10.80
2022-10-28T10:03:58.716Z,10.90
2022-10-28T10:04:58.729Z,10.80
2022-10-28T10:05:58.647Z,10.90
2022-10-28T10:06:58.631Z,11.20
2022-10-28T10:07:58.628Z,10.80
2022-10-28T10:08:58.643Z,10.70
2022-10-28T10:09:58.655Z,10.20
2022-10-28T10:10:58.607Z,9.50
2022-10-28T10:11:58.593Z,9.60
2022-10-28T10:12:59.043Z,10.60
2022-10-28T10:13:58.585Z,9.30
2022-10-28T10:14:58.634Z,10.40
2022-10-28T10:15:58.558Z,9.30
2022-10-28T10:16:58.521Z,9.20
2022-10-28T10:17:58.542Z,9.40
2022-10-28T10:18:58.542Z,9.40
2022-10-28T10:19:58.496Z,9.90
2022-10-28T10:20:58.491Z,9.50
2022-10-28T10:21:58.469Z,9.50
2022-10-28T10:22:58.464Z,8.80
2022-10-28T10:23:58.448Z,8.70
2022-10-28T10:24:58.514Z,9.00
2022-10-28T10:25:58.434Z,8.00
2022-10-28T10:26:58.429Z,8.20
2022-10-28T10:27:58.450Z,8.80
2022-10-28T10:28:58.379Z,8.40
2022-10-28T10:29:58.436Z,7.90
2022-10-28T10:30:58.384Z,8.40
2022-10-28T10:31:58.362Z,8.30
2022-10-28T10:32:58.360Z,8.40
2022-10-28T10:33:58.412Z,8.60
2022-10-28T10:34:58.352Z,8.70
2022-10-28T10:36:00.229Z,8.40
2022-10-28T10:36:58.356Z,8.20
2022-10-28T10:37:58.308Z,8.90
2022-10-28T10:38:58.334Z,8.40
2022-10-28T10:39:58.280Z,8.40
2022-10-28T10:40:58.249Z,8.30
2022-10-28T10:41:58.251Z,8.40
2022-10-28T10:43:12.893Z,7.70
2022-10-28T10:43:59.302Z,8.30
2022-10-28T10:44:58.232Z,9.00
2022-10-28T10:45:58.213Z,9.10
2022-10-28T10:47:00.669Z,7.60
2022-10-28T10:47:59.228Z,7.40
2022-10-28T10:48:58.179Z,7.50
2022-10-28T10:49:58.168Z,8.30
2022-10-28T10:50:58.160Z,7.60
2022-10-28T10:51:58.267Z,8.30
2022-10-28T10:52:58.161Z,8.30
2022-10-28T10:53:58.132Z,7.40
2022-10-28T10:54:58.095Z,7.60
2022-10-28T10:55:58.119Z,8.10
2022-10-28T10:57:58.123Z,8.40
2022-10-28T10:58:58.080Z,8.60
2022-10-28T10:59:58.065Z,8.40
2022-10-28T11:00:58.029Z,9.70
2022-10-28T11:01:58.148Z,10.00
2022-10-28T11:02:58.075Z,9.40
2022-10-28T11:04:57.995Z,10.00
2022-10-28T11:06:58.988Z,8.30
2022-10-28T11:07:57.965Z,8.30
2022-10-28T11:08:58.095Z,8.10
2022-10-28T11:09:57.960Z,7.90
2022-10-28T11:10:57.936Z,7.20
2022-10-28T11:11:57.922Z,7.60
2022-10-28T11:12:57.962Z,7.40
2022-10-28T11:13:57.975Z,6.90
2022-10-28T11:14:57.884Z,6.60
2022-10-28T11:15:57.885Z,6.40
2022-10-28T11:16:57.858Z,6.80
2022-10-28T11:17:57.954Z,6.70
2022-10-28T11:18:57.864Z,6.60
2022-10-28T11:19:57.835Z,6.70
2022-10-28T11:20:57.810Z,6.70
2022-10-28T11:21:57.840Z,6.40
2022-10-28T11:22:57.849Z,6.30
2022-10-28T11:23:57.830Z,6.30
2022-10-28T11:24:57.762Z,6.50
2022-10-28T11:25:57.774Z,6.70
2022-10-28T11:26:57.757Z,6.00
2022-10-28T11:28:01.546Z,5.80
2022-10-28T11:28:58.772Z,6.20
2022-10-28T11:29:57.735Z,6.80
2022-10-28T11:30:57.768Z,6.70
2022-10-28T11:31:57.726Z,7.40
2022-10-28T11:33:08.104Z,7.50
2022-10-28T11:33:58.727Z,7.60
2022-10-28T11:34:57.680Z,8.90
2022-10-28T11:35:57.662Z,8.60
2022-10-28T11:36:57.653Z,8.10
2022-10-28T11:37:57.643Z,8.30
2022-10-28T11:38:57.669Z,7.90
2022-10-28T11:39:57.615Z,9.30
2022-10-28T11:40:57.612Z,7.60
2022-10-28T11:41:57.592Z,9.40
2022-10-28T11:42:57.932Z,9.20
2022-10-28T11:44:00.915Z,9.30
2022-10-28T11:44:58.563Z,9.20
2022-10-28T11:45:57.552Z,10.10
2022-10-28T11:47:00.944Z,9.30
2022-10-28T11:47:58.559Z,8.90
2022-10-28T11:48:57.550Z,8.90
2022-10-28T11:49:57.520Z,8.30
2022-10-28T11:50:57.508Z,8.70
2022-10-28T11:51:57.477Z,9.00
2022-10-28T11:52:57.458Z,9.80
2022-10-28T11:53:57.492Z,9.70
2022-10-28T11:54:57.457Z,9.40
2022-10-28T11:55:57.438Z,9.60
2022-10-28T11:56:57.436Z,8.90
2022-10-28T11:57:57.806Z,9.40
2022-10-28T11:58:57.446Z,8.70
2022-10-28T11:59:57.413Z,8.20
2022-10-28T12:00:57.386Z,7.90
2022-10-28T12:01:57.466Z,8.60
2022-10-28T12:02:57.658Z,8.80
2022-10-28T12:03:57.388Z,8.50
2022-10-28T12:04:57.333Z,8.20
2022-10-28T12:05:57.333Z,9.60
2022-10-28T12:06:57.314Z,9.10
2022-10-28T12:07:57.355Z,9.10
2022-10-28T12:08:57.354Z,8.30
2022-10-28T12:09:57.298Z,8.30
2022-10-28T12:10:57.272Z,7.90
2022-10-28T12:11:57.402Z,7.70
2022-10-28T12:12:57.635Z,7.00
2022-10-28T12:13:57.299Z,7.40
2022-10-28T12:14:57.231Z,7.60
2022-10-28T12:15:57.256Z,7.50
2022-10-28T12:16:57.203Z,7.50
2022-10-28T12:17:57.488Z,7.50
2022-10-28T12:18:57.224Z,7.20
2022-10-28T12:19:57.186Z,7.20
2022-10-28T12:20:57.232Z,6.90
2022-10-28T12:21:57.166Z,6.80
2022-10-28T12:22:57.508Z,6.50
2022-10-28T12:23:57.181Z,6.70
2022-10-28T12:24:57.179Z,6.60
2022-10-28T12:25:57.122Z,6.80
2022-10-28T12:26:57.095Z,6.70
2022-10-28T12:27:57.091Z,6.50
2022-10-28T12:28:57.096Z,6.50
2022-10-28T12:29:57.059Z,6.40
2022-10-28T12:30:57.058Z,6.70
2022-10-28T12:31:57.058Z,6.70
2022-10-28T12:32:57.426Z,6.60
2022-10-28T12:33:57.054Z,7.10
2022-10-28T12:34:57.025Z,6.80
2022-10-28T12:35:56.997Z,7.30
2022-10-28T12:36:56.991Z,7.10
2022-10-28T12:37:57.310Z,7.10
2022-10-28T12:38:57.027Z,6.80
2022-10-28T12:39:56.979Z,7.00
2022-10-28T12:40:56.966Z,6.70
2022-10-28T12:41:56.928Z,6.80
2022-10-28T12:42:57.107Z,6.30
2022-10-28T12:43:56.917Z,6.60
2022-10-28T12:44:56.943Z,6.60
2022-10-28T12:45:56.902Z,6.70
2022-10-28T12:46:56.898Z,7.10